Time;durP1;ratioP1;P1;durP2;ratioP2;P2;SDS_P1;SDS_P2;PMS_P1;PMS_P2;Temp;Humidity;BMP_temperature;BMP_pressure;BME280_temperature;BME280_humidity;BME280_pressure;Samples;Min_cycle;Max_cycle;Signal;HPM_P1;HPM_P2
2022/03/18 00:00:34;;;;;;;7.73;3.70;;;;;;;;;;4997884;28;20231;-82
2022/03/18 00:03:01;;;;;;;7.20;3.60;;;;;;;;;;5000542;28;20228;-82
2022/03/18 00:05:28;;;;;;;3.77;3.10;;;;;;;;;;5000011;28;20231;-83
2022/03/18 00:07:55;;;;;;;7.43;3.20;;;;;;;;;;4998888;28;20672;-84
2022/03/18 00:10:23;;;;;;;8.93;3.97;;;;;;;;;;4998908;28;20255;-83
2022/03/18 00:12:52;;;;;;;6.57;3.50;;;;;;;;;;4998150;28;20220;-84
2022/03/18 00:15:19;;;;;;;5.77;3.67;;;;;;;;;;4997565;28;20704;-83
2022/03/18 00:17:48;;;;;;;8.67;3.80;;;;;;;;;;4990005;28;20218;-82
2022/03/18 00:20:15;;;;;;;7.70;3.83;;;;;;;;;;4997353;28;20234;-83
2022/03/18 00:22:43;;;;;;;4.87;3.23;;;;;;;;;;4997560;28;20232;-83
2022/03/18 00:25:10;;;;;;;8.87;3.57;;;;;;;;;;4997194;28;20227;-83
2022/03/18 00:27:38;;;;;;;10.00;3.90;;;;;;;;;;4997370;28;20204;-82
2022/03/18 00:30:06;;;;;;;7.23;3.70;;;;;;;;;;4997237;28;20208;-82
2022/03/18 00:32:33;;;;;;;14.63;3.80;;;;;;;;;;4997733;28;20204;-82
2022/03/18 00:35:02;;;;;;;5.53;3.47;;;;;;;;;;4997200;28;20200;-83
2022/03/18 00:37:29;;;;;;;3.93;3.57;;;;;;;;;;4996973;28;20227;-83
2022/03/18 00:39:56;;;;;;;7.77;3.50;;;;;;;;;;4997228;28;20894;-82
2022/03/18 00:42:23;;;;;;;6.43;3.30;;;;;;;;;;4996419;28;20235;-83
2022/03/18 00:44:50;;;;;;;9.37;4.17;;;;;;;;;;4997033;28;20207;-83
2022/03/18 00:52:48;;;;;;;6.47;3.37;;;;;;;;;;4997154;28;20206;-82
2022/03/18 00:55:15;;;;;;;10.37;4.10;;;;;;;;;;4997087;28;20228;-82
2022/03/18 00:57:42;;;;;;;7.27;3.93;;;;;;;;;;4997596;28;20239;-82
2022/03/18 01:00:10;;;;;;;8.57;3.70;;;;;;;;;;4997086;28;20672;-83
2022/03/18 01:02:37;;;;;;;8.43;3.90;;;;;;;;;;4997613;28;20220;-83
2022/03/18 01:05:06;;;;;;;6.70;3.57;;;;;;;;;;4997485;28;20211;-82
2022/03/18 01:07:33;;;;;;;11.23;3.97;;;;;;;;;;4997215;28;20200;-83
2022/03/18 01:10:00;;;;;;;6.47;3.57;;;;;;;;;;4997435;28;20635;-83
2022/03/18 01:12:27;;;;;;;6.27;3.97;;;;;;;;;;4996145;28;20239;-83
2022/03/18 01:14:55;;;;;;;12.90;4.17;;;;;;;;;;4997497;28;20243;-82
2022/03/18 01:17:22;;;;;;;10.30;4.10;;;;;;;;;;4996677;28;20230;-83
2022/03/18 01:19:49;;;;;;;12.60;4.47;;;;;;;;;;4997480;28;20208;-82
2022/03/18 01:22:18;;;;;;;8.33;4.27;;;;;;;;;;4996181;28;20232;-82
2022/03/18 01:24:45;;;;;;;11.50;4.03;;;;;;;;;;4996806;28;20220;-82
2022/03/18 01:27:12;;;;;;;8.93;4.47;;;;;;;;;;4996370;28;20224;-83
2022/03/18 01:29:39;;;;;;;15.63;4.47;;;;;;;;;;4997299;28;20736;-82
2022/03/18 01:32:06;;;;;;;8.07;4.03;;;;;;;;;;4996510;28;20243;-83
2022/03/18 01:34:33;;;;;;;8.07;3.97;;;;;;;;;;4996592;28;20207;-83
2022/03/18 01:37:00;;;;;;;10.03;4.20;;;;;;;;;;4995238;28;20719;-83
2022/03/18 01:39:29;;;;;;;8.03;4.10;;;;;;;;;;4996246;28;20207;-83
2022/03/18 01:41:56;;;;;;;7.23;4.00;;;;;;;;;;5001329;28;20246;-83
2022/03/18 01:44:23;;;;;;;5.33;3.30;;;;;;;;;;5001662;28;20216;-83
2022/03/18 01:46:50;;;;;;;7.83;3.93;;;;;;;;;;4998833;28;20251;-82
2022/03/18 01:49:17;;;;;;;9.47;4.37;;;;;;;;;;4981847;28;20207;-83
2022/03/18 01:51:45;;;;;;;10.00;3.63;;;;;;;;;;4996368;28;20238;-83
2022/03/18 01:56:59;;;;;;;8.20;4.27;;;;;;;;;;4996588;28;20266;-82
2022/03/18 01:59:26;;;;;;;13.73;3.80;;;;;;;;;;4996927;28;20229;-82
2022/03/18 02:01:53;;;;;;;8.90;3.60;;;;;;;;;;4996691;28;20255;-82
2022/03/18 02:04:20;;;;;;;13.63;3.93;;;;;;;;;;4997075;28;20299;-83
2022/03/18 02:06:48;;;;;;;11.57;4.03;;;;;;;;;;4995437;28;20232;-82
2022/03/18 02:09:15;;;;;;;8.80;3.93;;;;;;;;;;4995710;28;20574;-84
2022/03/18 02:11:42;;;;;;;7.83;3.83;;;;;;;;;;4996707;28;20236;-83
2022/03/18 02:14:10;;;;;;;9.10;4.20;;;;;;;;;;4997149;28;20230;-83
2022/03/18 02:16:39;;;;;;;8.70;3.40;;;;;;;;;;4995977;28;20333;-83
2022/03/18 02:19:07;;;;;;;11.53;4.10;;;;;;;;;;4996740;28;20290;-83
2022/03/18 02:21:36;;;;;;;9.43;3.90;;;;;;;;;;4995658;28;20323;-82
2022/03/18 02:24:05;;;;;;;9.20;4.00;;;;;;;;;;4996470;28;20238;-82
2022/03/18 02:26:32;;;;;;;6.47;4.10;;;;;;;;;;4994774;28;20247;-83
2022/03/18 02:29:00;;;;;;;10.83;4.23;;;;;;;;;;4995991;28;20208;-84
2022/03/18 02:31:30;;;;;;;5.33;3.93;;;;;;;;;;4995663;28;20704;-83
2022/03/18 02:33:57;;;;;;;9.20;4.63;;;;;;;;;;4996523;28;20235;-83
2022/03/18 02:36:24;;;;;;;12.53;4.13;;;;;;;;;;4995169;28;20246;-84
2022/03/18 02:38:51;;;;;;;9.57;3.87;;;;;;;;;;4996003;28;20205;-83
2022/03/18 02:41:19;;;;;;;11.77;5.43;;;;;;;;;;4995611;28;20236;-84
2022/03/18 02:43:47;;;;;;;8.37;3.90;;;;;;;;;;4995996;28;20238;-83
2022/03/18 02:46:14;;;;;;;10.57;4.57;;;;;;;;;;4996876;28;20239;-84
2022/03/18 02:48:41;;;;;;;5.87;3.43;;;;;;;;;;4997114;28;20211;-83
2022/03/18 02:51:08;;;;;;;6.63;3.80;;;;;;;;;;4995550;28;20240;-83
2022/03/18 02:53:35;;;;;;;13.37;4.17;;;;;;;;;;4996576;28;20196;-82
2022/03/18 02:56:03;;;;;;;8.47;4.40;;;;;;;;;;4996093;28;20243;-85
2022/03/18 02:58:32;;;;;;;9.13;4.00;;;;;;;;;;4995942;28;20260;-83
2022/03/18 03:00:59;;;;;;;12.33;4.27;;;;;;;;;;4995556;28;20238;-83
2022/03/18 03:03:26;;;;;;;8.17;4.27;;;;;;;;;;4995100;28;20227;-82
2022/03/18 03:08:38;;;;;;;9.37;4.00;;;;;;;;;;4995434;28;20198;-83
2022/03/18 03:11:05;;;;;;;12.10;4.10;;;;;;;;;;4998696;28;20246;-83
2022/03/18 03:13:33;;;;;;;10.67;4.30;;;;;;;;;;5015462;28;20667;-82
2022/03/18 03:16:00;;;;;;;11.40;3.90;;;;;;;;;;5015412;28;20381;-82
2022/03/18 03:18:28;;;;;;;10.87;4.50;;;;;;;;;;5014211;28;20683;-82
2022/03/18 03:20:55;;;;;;;11.07;4.87;;;;;;;;;;5014730;28;20700;-83
2022/03/18 03:23:25;;;;;;;12.60;4.57;;;;;;;;;;5014515;28;20594;-82
2022/03/18 03:25:52;;;;;;;8.60;3.80;;;;;;;;;;5010916;28;20306;-82
2022/03/18 03:28:20;;;;;;;8.50;4.40;;;;;;;;;;4995148;28;20207;-83
2022/03/18 03:30:48;;;;;;;8.67;4.13;;;;;;;;;;4994960;28;20240;-83
2022/03/18 03:33:16;;;;;;;6.37;4.27;;;;;;;;;;5012721;28;20261;-84
2022/03/18 03:35:43;;;;;;;15.93;4.83;;;;;;;;;;5014343;28;20246;-83
2022/03/18 03:38:10;;;;;;;11.83;4.57;;;;;;;;;;4998442;28;20206;-82
2022/03/18 03:40:38;;;;;;;8.30;4.30;;;;;;;;;;4998773;28;20258;-82
2022/03/18 03:43:05;;;;;;;10.17;4.57;;;;;;;;;;4999385;28;20563;-82
2022/03/18 03:45:32;;;;;;;8.67;4.60;;;;;;;;;;5008207;28;20242;-83
2022/03/18 03:48:00;;;;;;;9.20;4.83;;;;;;;;;;5004016;28;20207;-83
2022/03/18 03:50:27;;;;;;;14.83;4.27;;;;;;;;;;4998349;28;20287;-82
2022/03/18 03:52:54;;;;;;;8.90;4.83;;;;;;;;;;4998856;28;20207;-82
2022/03/18 03:55:21;;;;;;;10.27;4.50;;;;;;;;;;4998239;28;20259;-82
2022/03/18 03:57:49;;;;;;;16.73;4.90;;;;;;;;;;5008745;28;20195;-82
2022/03/18 04:00:16;;;;;;;11.53;4.80;;;;;;;;;;5010528;28;20760;-82
2022/03/18 04:02:44;;;;;;;14.13;4.33;;;;;;;;;;5009945;28;20635;-82
2022/03/18 04:05:13;;;;;;;8.67;4.60;;;;;;;;;;5008918;28;20227;-83
2022/03/18 04:07:41;;;;;;;7.60;4.87;;;;;;;;;;5013392;28;20210;-83
2022/03/18 04:10:10;;;;;;;8.40;4.53;;;;;;;;;;5017780;28;20219;-83
2022/03/18 04:12:37;;;;;;;10.43;4.20;;;;;;;;;;5018481;28;20204;-83
2022/03/18 04:15:05;;;;;;;11.17;4.60;;;;;;;;;;5011149;28;20211;-83
2022/03/18 04:17:37;;;;;;;13.10;4.80;;;;;;;;;;4998537;28;20685;-82
2022/03/18 04:20:05;;;;;;;7.73;4.30;;;;;;;;;;4998126;28;20204;-83
2022/03/18 04:22:34;;;;;;;9.47;4.23;;;;;;;;;;4998729;28;20282;-83
2022/03/18 04:25:01;;;;;;;12.03;4.50;;;;;;;;;;5000906;28;20208;-84
2022/03/18 04:27:28;;;;;;;10.87;4.77;;;;;;;;;;5007020;28;20235;-82
2022/03/18 04:29:55;;;;;;;9.23;4.60;;;;;;;;;;5005731;28;20207;-83
2022/03/18 04:32:22;;;;;;;15.73;5.20;;;;;;;;;;4999220;28;20228;-83
2022/03/18 04:34:49;;;;;;;7.90;4.90;;;;;;;;;;5014216;28;20214;-82
2022/03/18 04:37:16;;;;;;;10.87;4.73;;;;;;;;;;5016311;28;20245;-83
2022/03/18 04:39:44;;;;;;;12.77;5.20;;;;;;;;;;5015413;28;20849;-84
2022/03/18 04:42:12;;;;;;;13.57;5.70;;;;;;;;;;5015325;28;20722;-84
2022/03/18 04:44:48;;;;;;;10.13;5.10;;;;;;;;;;5017877;28;20194;-83
2022/03/18 04:47:15;;;;;;;10.50;4.50;;;;;;;;;;5023459;28;20229;-83
2022/03/18 04:49:42;;;;;;;10.67;5.00;;;;;;;;;;5001533;28;20208;-83
2022/03/18 04:52:09;;;;;;;10.93;4.80;;;;;;;;;;4995174;28;20680;-84
2022/03/18 04:54:36;;;;;;;13.17;5.37;;;;;;;;;;4997025;28;20194;-83
2022/03/18 04:57:18;;;;;;;7.40;4.77;;;;;;;;;;4995598;28;20780;-84
2022/03/18 04:59:46;;;;;;;8.83;5.07;;;;;;;;;;5001530;28;20210;-83
2022/03/18 05:02:13;;;;;;;7.90;4.63;;;;;;;;;;5008320;28;20219;-85
2022/03/18 05:04:41;;;;;;;8.37;4.70;;;;;;;;;;4994259;28;20234;-85
2022/03/18 05:07:08;;;;;;;7.77;4.83;;;;;;;;;;4993726;28;20281;-84
2022/03/18 05:09:35;;;;;;;9.97;5.33;;;;;;;;;;5007794;28;20210;-85
2022/03/18 05:12:02;;;;;;;12.47;5.17;;;;;;;;;;4998244;28;20235;-86
2022/03/18 05:14:32;;;;;;;10.90;4.80;;;;;;;;;;5000801;28;20205;-86
2022/03/18 05:16:59;;;;;;;15.33;5.57;;;;;;;;;;4991205;28;20245;-86
2022/03/18 05:19:26;;;;;;;9.67;4.67;;;;;;;;;;4999183;28;20198;-88
2022/03/18 05:21:53;;;;;;;11.23;4.90;;;;;;;;;;4982469;28;20232;-86
2022/03/18 05:24:20;;;;;;;15.83;5.27;;;;;;;;;;4993771;28;20218;-86
2022/03/18 05:26:47;;;;;;;17.60;5.77;;;;;;;;;;4994005;28;20234;-88
2022/03/18 05:29:15;;;;;;;9.57;5.10;;;;;;;;;;4995361;28;20213;-88
2022/03/18 05:31:43;;;;;;;11.00;5.13;;;;;;;;;;4994260;28;20719;-88
2022/03/18 05:34:10;;;;;;;13.60;6.67;;;;;;;;;;4995154;28;20644;-86
2022/03/18 05:36:37;;;;;;;18.63;5.40;;;;;;;;;;4993645;28;20467;-87
2022/03/18 05:39:04;;;;;;;10.47;5.77;;;;;;;;;;4975785;28;20569;-85
2022/03/18 05:41:32;;;;;;;19.37;6.33;;;;;;;;;;4975047;28;20239;-86
2022/03/18 05:43:59;;;;;;;12.50;5.60;;;;;;;;;;4974699;28;20256;-86
2022/03/18 05:46:26;;;;;;;13.53;5.47;;;;;;;;;;4974418;28;20241;-86
2022/03/18 05:48:54;;;;;;;8.47;5.37;;;;;;;;;;4975365;28;20242;-86
2022/03/18 05:51:21;;;;;;;9.40;5.53;;;;;;;;;;4974441;28;20754;-87
2022/03/18 05:53:48;;;;;;;11.40;5.60;;;;;;;;;;4990666;28;20213;-85
2022/03/18 05:59:01;;;;;;;10.80;5.67;;;;;;;;;;4993987;28;20269;-86
2022/03/18 06:01:28;;;;;;;11.67;5.53;;;;;;;;;;4991990;28;20246;-86
2022/03/18 06:03:57;;;;;;;12.00;6.20;;;;;;;;;;4984491;28;20240;-86
2022/03/18 06:06:24;;;;;;;8.47;5.27;;;;;;;;;;4983735;28;20237;-85
2022/03/18 06:11:51;;;;;;;12.20;5.87;;;;;;;;;;4995117;28;20234;-85
2022/03/18 06:14:19;;;;;;;10.00;5.27;;;;;;;;;;4997540;28;20216;-85
2022/03/18 06:16:47;;;;;;;10.17;5.57;;;;;;;;;;4996989;28;20255;-85
2022/03/18 06:19:15;;;;;;;15.03;6.23;;;;;;;;;;4995062;28;20208;-86
2022/03/18 06:21:43;;;;;;;11.33;5.23;;;;;;;;;;5008699;28;20259;-86
2022/03/18 06:24:10;;;;;;;11.43;5.63;;;;;;;;;;5014849;28;20319;-84
2022/03/18 06:26:37;;;;;;;15.30;5.97;;;;;;;;;;5009498;28;20720;-84
2022/03/18 06:29:04;;;;;;;7.50;5.30;;;;;;;;;;4992540;28;20215;-84
2022/03/18 06:31:32;;;;;;;10.30;5.53;;;;;;;;;;4992568;28;20240;-84
2022/03/18 06:33:59;;;;;;;17.60;6.10;;;;;;;;;;4993731;28;20211;-83
2022/03/18 06:36:28;;;;;;;16.33;5.80;;;;;;;;;;4992680;28;20241;-84
2022/03/18 06:38:55;;;;;;;16.93;6.30;;;;;;;;;;4993924;28;20207;-84
2022/03/18 06:41:22;;;;;;;12.00;6.60;;;;;;;;;;4993972;28;20227;-84
2022/03/18 06:43:49;;;;;;;12.87;6.27;;;;;;;;;;4993019;28;20576;-84
2022/03/18 06:46:17;;;;;;;12.03;6.40;;;;;;;;;;5006911;28;20239;-84
2022/03/18 06:48:45;;;;;;;12.27;5.37;;;;;;;;;;5013231;28;20236;-84
2022/03/18 06:51:12;;;;;;;12.70;6.70;;;;;;;;;;5012374;28;20727;-84
2022/03/18 06:53:41;;;;;;;8.57;5.47;;;;;;;;;;5017737;28;20218;-83
2022/03/18 06:56:08;;;;;;;10.23;6.50;;;;;;;;;;4994929;28;20243;-84
2022/03/18 06:58:36;;;;;;;14.30;7.10;;;;;;;;;;4994140;28;20228;-86
2022/03/18 07:01:03;;;;;;;10.43;6.07;;;;;;;;;;4992328;28;20239;-85
2022/03/18 07:03:30;;;;;;;18.67;5.83;;;;;;;;;;4993464;28;20242;-85
2022/03/18 07:05:57;;;;;;;10.30;5.60;;;;;;;;;;5001699;28;20707;-85
2022/03/18 07:08:24;;;;;;;11.80;5.77;;;;;;;;;;5013214;28;20293;-85
2022/03/18 07:10:53;;;;;;;18.27;5.90;;;;;;;;;;5012679;28;20262;-85
2022/03/18 07:13:21;;;;;;;11.67;5.63;;;;;;;;;;5016196;28;20196;-82
2022/03/18 07:15:48;;;;;;;12.23;6.03;;;;;;;;;;5015289;28;20245;-84
2022/03/18 07:18:14;;;;;;;14.87;6.80;;;;;;;;;;5017223;28;20269;-84
2022/03/18 07:20:42;;;;;;;19.10;5.83;;;;;;;;;;5015900;28;20292;-83
2022/03/18 07:23:09;;;;;;;10.13;5.93;;;;;;;;;;5016860;28;20211;-83
2022/03/18 07:25:37;;;;;;;13.73;6.47;;;;;;;;;;5015894;28;20242;-83
2022/03/18 07:28:07;;;;;;;15.40;7.27;;;;;;;;;;5016326;28;20572;-83
2022/03/18 07:30:34;;;;;;;11.67;6.30;;;;;;;;;;5016119;28;20233;-84
2022/03/18 07:33:01;;;;;;;10.23;6.13;;;;;;;;;;5016435;28;20741;-84
2022/03/18 07:35:28;;;;;;;15.53;6.63;;;;;;;;;;5015759;28;20242;-83
2022/03/18 07:37:56;;;;;;;14.30;6.60;;;;;;;;;;5015932;28;20690;-84
2022/03/18 07:40:23;;;;;;;15.50;7.10;;;;;;;;;;5016087;28;21330;-84
2022/03/18 07:42:50;;;;;;;11.77;6.57;;;;;;;;;;5015346;28;20199;-84
2022/03/18 07:45:20;;;;;;;13.57;6.00;;;;;;;;;;5015140;28;20235;-84
2022/03/18 07:47:49;;;;;;;16.63;7.13;;;;;;;;;;5016844;28;20206;-84
2022/03/18 07:50:19;;;;;;;16.97;6.73;;;;;;;;;;5016999;28;20301;-85
2022/03/18 07:52:47;;;;;;;12.47;6.17;;;;;;;;;;5016892;28;20733;-84
2022/03/18 07:55:14;;;;;;;14.73;5.53;;;;;;;;;;5024751;28;20211;-84
2022/03/18 07:57:41;;;;;;;10.00;6.13;;;;;;;;;;5020392;28;20238;-84
2022/03/18 08:00:08;;;;;;;14.03;5.90;;;;;;;;;;5016976;28;20214;-84
2022/03/18 08:02:37;;;;;;;11.27;5.73;;;;;;;;;;5016167;28;20675;-84
2022/03/18 08:05:04;;;;;;;13.00;6.27;;;;;;;;;;5016214;28;20224;-84
2022/03/18 08:07:33;;;;;;;13.57;6.00;;;;;;;;;;5016423;28;20211;-84
2022/03/18 08:10:00;;;;;;;16.43;6.53;;;;;;;;;;5016836;28;20215;-85
2022/03/18 08:12:28;;;;;;;12.37;5.80;;;;;;;;;;5016101;28;20252;-84
2022/03/18 08:14:55;;;;;;;11.60;6.10;;;;;;;;;;5016424;28;20238;-84
2022/03/18 08:17:22;;;;;;;13.80;5.97;;;;;;;;;;4996702;28;20236;-84
2022/03/18 08:19:50;;;;;;;9.10;5.80;;;;;;;;;;4996824;28;20208;-84
2022/03/18 08:22:19;;;;;;;12.03;5.53;;;;;;;;;;4995466;28;20243;-83
2022/03/18 08:24:46;;;;;;;10.37;5.87;;;;;;;;;;4994982;28;20715;-83
2022/03/18 08:27:13;;;;;;;11.07;5.67;;;;;;;;;;4995447;28;20235;-83
2022/03/18 08:29:40;;;;;;;12.23;5.20;;;;;;;;;;4996984;28;20211;-86
2022/03/18 08:32:08;;;;;;;7.93;5.67;;;;;;;;;;4997341;28;20236;-84
2022/03/18 08:34:35;;;;;;;10.90;5.63;;;;;;;;;;4998114;28;20192;-85
2022/03/18 08:37:05;;;;;;;7.20;4.40;;;;;;;;;;4995486;28;20240;-85
2022/03/18 08:39:32;;;;;;;10.47;5.90;;;;;;;;;;4996842;28;20275;-84
2022/03/18 08:41:59;;;;;;;12.70;5.90;;;;;;;;;;4994950;28;20619;-84
2022/03/18 08:44:27;;;;;;;11.73;5.87;;;;;;;;;;4995895;28;20234;-83
2022/03/18 08:46:55;;;;;;;16.10;5.30;;;;;;;;;;4994916;28;20248;-83
2022/03/18 08:49:22;;;;;;;7.27;5.53;;;;;;;;;;4996440;28;20208;-84
2022/03/18 08:51:49;;;;;;;9.07;5.20;;;;;;;;;;4995248;28;20290;-83
2022/03/18 08:54:21;;;;;;;12.07;5.90;;;;;;;;;;4995843;28;20227;-84
2022/03/18 08:56:48;;;;;;;13.77;6.20;;;;;;;;;;4975122;28;20268;-84
2022/03/18 08:59:15;;;;;;;8.13;5.37;;;;;;;;;;4976681;28;20209;-84
2022/03/18 09:01:43;;;;;;;9.33;5.47;;;;;;;;;;4987860;28;20247;-84
2022/03/18 09:04:10;;;;;;;9.03;5.27;;;;;;;;;;4995446;28;20240;-84
2022/03/18 09:06:37;;;;;;;13.80;5.00;;;;;;;;;;4995342;28;20302;-84
2022/03/18 09:09:05;;;;;;;5.70;4.20;;;;;;;;;;4994628;28;20211;-85
2022/03/18 09:11:33;;;;;;;8.70;5.00;;;;;;;;;;4994830;28;20235;-84
2022/03/18 09:14:00;;;;;;;13.20;5.63;;;;;;;;;;4995412;28;20208;-85
2022/03/18 09:16:27;;;;;;;9.23;4.20;;;;;;;;;;4994926;28;20251;-85
2022/03/18 09:18:54;;;;;;;10.83;4.87;;;;;;;;;;4995936;28;20220;-84
2022/03/18 09:21:22;;;;;;;10.33;4.20;;;;;;;;;;4994938;28;20231;-85
2022/03/18 09:23:49;;;;;;;10.97;4.10;;;;;;;;;;4976277;28;20744;-85
2022/03/18 09:26:16;;;;;;;7.37;4.50;;;;;;;;;;4985795;28;20243;-84
2022/03/18 09:28:45;;;;;;;9.33;4.50;;;;;;;;;;4994996;28;20204;-84
2022/03/18 09:31:12;;;;;;;10.97;4.23;;;;;;;;;;5006450;28;20226;-85
2022/03/18 09:33:41;;;;;;;9.17;4.07;;;;;;;;;;5014645;28;20203;-85
2022/03/18 09:36:09;;;;;;;8.37;4.17;;;;;;;;;;5017999;28;20603;-85
2022/03/18 09:38:36;;;;;;;7.30;3.70;;;;;;;;;;5015305;28;20207;-85
2022/03/18 09:41:03;;;;;;;6.83;4.33;;;;;;;;;;5015258;28;20696;-85
2022/03/18 09:43:32;;;;;;;7.77;4.10;;;;;;;;;;5026264;28;20242;-85
2022/03/18 09:46:01;;;;;;;9.93;4.60;;;;;;;;;;5023828;28;20710;-86
2022/03/18 09:48:28;;;;;;;5.90;4.13;;;;;;;;;;5034032;28;20203;-85
2022/03/18 09:50:56;;;;;;;7.77;4.30;;;;;;;;;;5021324;28;20239;-85
2022/03/18 09:53:23;;;;;;;8.13;4.10;;;;;;;;;;5014563;28;20195;-85
2022/03/18 09:55:51;;;;;;;7.63;3.80;;;;;;;;;;5021452;28;20249;-85
2022/03/18 09:58:18;;;;;;;8.07;4.10;;;;;;;;;;5029416;28;20316;-85
2022/03/18 10:00:47;;;;;;;8.60;4.53;;;;;;;;;;5013258;28;20235;-85
2022/03/18 10:03:16;;;;;;;9.30;3.23;;;;;;;;;;5014148;28;20207;-85
2022/03/18 10:05:50;;;;;;;9.77;4.10;;;;;;;;;;5013371;28;20235;-85
2022/03/18 10:08:21;;;;;;;11.53;3.30;;;;;;;;;;5013900;28;20253;-85
2022/03/18 10:10:48;;;;;;;9.87;4.37;;;;;;;;;;5005892;28;20238;-84
2022/03/18 10:13:16;;;;;;;5.43;3.50;;;;;;;;;;5021977;28;20590;-85
2022/03/18 10:15:44;;;;;;;5.27;3.93;;;;;;;;;;5021170;28;20245;-84
2022/03/18 10:18:12;;;;;;;9.73;3.57;;;;;;;;;;5033659;28;20206;-85
2022/03/18 10:20:41;;;;;;;6.63;3.63;;;;;;;;;;5031636;28;20769;-85
2022/03/18 10:23:19;;;;;;;6.93;3.43;;;;;;;;;;5013579;28;20203;-85
2022/03/18 10:25:50;;;;;;;5.67;3.40;;;;;;;;;;5013229;28;20255;-85
2022/03/18 10:28:18;;;;;;;7.07;3.40;;;;;;;;;;5021129;28;20219;-85
2022/03/18 10:30:47;;;;;;;5.37;3.23;;;;;;;;;;5031249;28;20230;-85
2022/03/18 10:33:14;;;;;;;6.97;3.43;;;;;;;;;;5020438;28;20203;-85
2022/03/18 10:38:31;;;;;;;7.43;3.47;;;;;;;;;;5036429;28;20303;-86
2022/03/18 10:40:59;;;;;;;4.97;3.47;;;;;;;;;;5036689;28;20235;-86
2022/03/18 10:43:26;;;;;;;11.13;3.47;;;;;;;;;;5030288;28;20762;-87
2022/03/18 10:46:01;;;;;;;5.10;3.10;;;;;;;;;;5016980;28;20239;-87
2022/03/18 10:48:28;;;;;;;7.77;3.63;;;;;;;;;;5022397;28;20223;-87
2022/03/18 10:51:04;;;;;;;4.97;3.67;;;;;;;;;;5013799;28;20259;-86
2022/03/18 10:53:31;;;;;;;5.80;3.00;;;;;;;;;;5027343;28;20297;-87
2022/03/18 10:56:01;;;;;;;8.07;3.77;;;;;;;;;;5033306;28;20719;-87
2022/03/18 10:58:31;;;;;;;9.77;3.63;;;;;;;;;;5033254;28;20761;-87
2022/03/18 11:00:59;;;;;;;6.77;3.50;;;;;;;;;;5056378;22;20783;-80
2022/03/18 11:03:26;;;;;;;6.87;3.10;;;;;;;;;;5021391;28;20255;-80
2022/03/18 11:05:54;;;;;;;7.30;3.30;;;;;;;;;;5012611;28;20246;-80
2022/03/18 11:08:24;;;;;;;4.40;2.83;;;;;;;;;;5012726;28;20238;-82
2022/03/18 11:13:38;;;;;;;9.30;3.43;;;;;;;;;;5025555;28;20197;-79
2022/03/18 11:16:05;;;;;;;5.10;3.40;;;;;;;;;;5018422;28;20245;-80
2022/03/18 11:18:36;;;;;;;6.80;2.77;;;;;;;;;;5021110;28;20214;-80
2022/03/18 11:21:05;;;;;;;4.83;2.87;;;;;;;;;;5033681;28;20239;-80
2022/03/18 11:23:35;;;;;;;5.30;3.03;;;;;;;;;;5036160;28;20206;-81
2022/03/18 11:26:02;;;;;;;6.10;2.80;;;;;;;;;;5035312;28;20242;-81
2022/03/18 11:28:30;;;;;;;5.37;2.97;;;;;;;;;;5025656;28;20209;-80
2022/03/18 11:31:05;;;;;;;5.70;2.90;;;;;;;;;;5035678;28;20253;-81
2022/03/18 11:33:33;;;;;;;6.90;2.93;;;;;;;;;;5035974;28;20245;-82
2022/03/18 11:36:14;;;;;;;5.73;2.77;;;;;;;;;;5035296;28;20253;-82
2022/03/18 11:39:02;;;;;;;6.37;2.77;;;;;;;;;;5036612;28;20603;-81
2022/03/18 11:41:45;;;;;;;6.53;2.60;;;;;;;;;;5035468;28;20239;-82
2022/03/18 11:44:34;;;;;;;4.20;2.20;;;;;;;;;;5034794;28;20260;-81
2022/03/18 11:47:16;;;;;;;4.63;2.57;;;;;;;;;;5034420;28;20233;-81
2022/03/18 11:49:45;;;;;;;4.27;2.40;;;;;;;;;;5016362;28;20219;-81
2022/03/18 11:52:12;;;;;;;6.40;2.23;;;;;;;;;;5018461;28;20231;-81
2022/03/18 11:54:50;;;;;;;4.67;2.20;;;;;;;;;;5015494;28;20196;-81
2022/03/18 11:57:29;;;;;;;6.00;2.33;;;;;;;;;;5020013;28;20722;-81
2022/03/18 12:00:00;;;;;;;4.68;2.10;;;;;;;;;;5019938;28;20211;-81
2022/03/18 12:02:32;;;;;;;4.63;2.20;;;;;;;;;;5049454;28;20245;-81
2022/03/18 12:05:00;;;;;;;4.93;2.20;;;;;;;;;;5059516;28;20206;-81
2022/03/18 12:07:28;;;;;;;4.18;1.90;;;;;;;;;;5051254;28;20230;-82
2022/03/18 12:10:00;;;;;;;3.88;1.92;;;;;;;;;;5060863;28;20210;-83
2022/03/18 12:12:29;;;;;;;5.78;2.00;;;;;;;;;;5058809;28;20235;-83
2022/03/18 12:14:58;;;;;;;5.97;2.10;;;;;;;;;;5045084;28;20214;-84
2022/03/18 12:17:25;;;;;;;3.85;2.38;;;;;;;;;;5046147;28;20245;-86
2022/03/18 12:19:53;;;;;;;4.93;1.55;;;;;;;;;;5056791;28;20639;-83
2022/03/18 12:22:22;;;;;;;4.38;2.53;;;;;;;;;;5058894;28;20745;-83
2022/03/18 12:24:49;;;;;;;4.13;1.90;;;;;;;;;;5044860;28;20210;-83
2022/03/18 12:27:20;;;;;;;3.85;1.98;;;;;;;;;;5050018;28;20255;-83
2022/03/18 12:29:48;;;;;;;2.85;1.88;;;;;;;;;;5060196;28;20205;-82
2022/03/18 12:32:17;;;;;;;4.32;1.92;;;;;;;;;;5060824;28;20301;-83
2022/03/18 12:34:48;;;;;;;4.03;1.75;;;;;;;;;;5064822;28;20229;-83
2022/03/18 12:37:17;;;;;;;3.20;1.75;;;;;;;;;;5057931;28;20226;-84
2022/03/18 12:39:44;;;;;;;6.38;2.10;;;;;;;;;;5059040;28;20296;-84
2022/03/18 12:42:12;;;;;;;2.63;1.65;;;;;;;;;;5059664;28;20624;-83
2022/03/18 12:44:39;;;;;;;4.60;1.50;;;;;;;;;;5061038;28;20214;-83
2022/03/18 12:47:07;;;;;;;4.50;1.60;;;;;;;;;;5060860;28;20245;-84
2022/03/18 12:49:36;;;;;;;2.35;1.35;;;;;;;;;;5061749;28;20201;-84
2022/03/18 12:52:03;;;;;;;2.75;1.60;;;;;;;;;;5059448;28;20265;-82
2022/03/18 12:54:30;;;;;;;4.43;1.45;;;;;;;;;;5061753;28;20217;-82
2022/03/18 12:56:58;;;;;;;2.08;1.30;;;;;;;;;;5057011;28;20222;-82
2022/03/18 12:59:25;;;;;;;2.75;1.25;;;;;;;;;;5057988;28;20293;-81
2022/03/18 13:01:53;;;;;;;2.70;1.13;;;;;;;;;;5057432;28;20606;-80
2022/03/18 13:04:21;;;;;;;2.85;1.55;;;;;;;;;;5058773;28;20584;-81
2022/03/18 13:06:51;;;;;;;3.75;1.50;;;;;;;;;;5046726;28;20261;-81
2022/03/18 13:09:19;;;;;;;2.83;1.35;;;;;;;;;;5053822;28;20216;-81
2022/03/18 13:11:46;;;;;;;3.88;1.58;;;;;;;;;;5055573;28;20244;-80
2022/03/18 13:14:13;;;;;;;3.30;1.30;;;;;;;;;;5067454;28;20261;-81
2022/03/18 13:16:41;;;;;;;4.43;1.52;;;;;;;;;;5063784;28;20236;-81
2022/03/18 13:19:08;;;;;;;2.50;1.30;;;;;;;;;;5056118;28;20212;-81
2022/03/18 13:21:43;;;;;;;3.13;1.73;;;;;;;;;;5053211;28;20720;-81
2022/03/18 13:24:12;;;;;;;4.38;1.48;;;;;;;;;;5037354;28;20202;-81
2022/03/18 13:26:42;;;;;;;2.08;1.30;;;;;;;;;;5052447;28;21056;-83
2022/03/18 13:29:10;;;;;;;3.88;1.40;;;;;;;;;;5057071;28;20217;-82
2022/03/18 13:34:32;;;;;;;3.13;1.65;;;;;;;;;;5037589;28;20186;-83
2022/03/18 13:37:12;;;;;;;3.53;1.30;;;;;;;;;;5016394;28;20239;-81
2022/03/18 13:39:41;;;;;;;2.78;1.20;;;;;;;;;;5024610;28;20222;-80
2022/03/18 13:42:08;;;;;;;2.42;1.27;;;;;;;;;;5014090;28;20243;-79
2022/03/18 13:44:45;;;;;;;1.98;1.30;;;;;;;;;;5033425;28;20433;-79
2022/03/18 13:47:12;;;;;;;1.80;1.35;;;;;;;;;;5033197;28;20677;-79
2022/03/18 13:49:39;;;;;;;2.97;1.35;;;;;;;;;;5032755;28;20219;-79
2022/03/18 13:52:07;;;;;;;2.78;1.30;;;;;;;;;;5032539;28;20241;-79
2022/03/18 13:54:43;;;;;;;1.27;1.15;;;;;;;;;;5033355;28;20419;-79
2022/03/18 13:57:11;;;;;;;3.10;1.50;;;;;;;;;;5021804;28;20223;-79
2022/03/18 13:59:38;;;;;;;3.45;1.40;;;;;;;;;;5034987;28;20207;-80
2022/03/18 14:02:07;;;;;;;4.47;1.60;;;;;;;;;;5024784;28;20231;-80
2022/03/18 14:04:41;;;;;;;2.75;1.10;;;;;;;;;;5016075;28;20246;-80
2022/03/18 14:07:09;;;;;;;1.95;1.20;;;;;;;;;;5015647;28;20246;-79
2022/03/18 14:09:36;;;;;;;2.55;1.35;;;;;;;;;;5027131;28;20205;-80
2022/03/18 14:12:10;;;;;;;2.38;1.40;;;;;;;;;;5037587;28;20235;-80
2022/03/18 14:14:38;;;;;;;3.53;1.77;;;;;;;;;;5039291;28;20209;-80
2022/03/18 14:17:09;;;;;;;2.50;1.30;;;;;;;;;;5037690;28;20230;-81
2022/03/18 14:19:50;;;;;;;3.22;1.30;;;;;;;;;;5032909;28;20212;-81
2022/03/18 14:22:31;;;;;;;2.63;1.30;;;;;;;;;;5030941;28;20324;-82
2022/03/18 14:24:59;;;;;;;2.25;1.42;;;;;;;;;;5033592;28;20289;-84
2022/03/18 14:27:27;;;;;;;3.83;1.10;;;;;;;;;;5032517;28;20238;-83
2022/03/18 14:29:54;;;;;;;2.50;1.10;;;;;;;;;;5033264;28;20311;-84
2022/03/18 14:32:22;;;;;;;2.35;1.50;;;;;;;;;;5031973;28;20238;-84
2022/03/18 14:34:50;;;;;;;2.60;1.45;;;;;;;;;;5033389;28;20280;-84
2022/03/18 14:37:18;;;;;;;2.92;1.42;;;;;;;;;;5032693;28;20679;-84
2022/03/18 14:39:45;;;;;;;4.95;1.60;;;;;;;;;;5033387;28;20202;-81
2022/03/18 14:42:12;;;;;;;4.72;1.85;;;;;;;;;;5032745;28;20238;-82
2022/03/18 14:44:41;;;;;;;2.17;1.65;;;;;;;;;;5034918;28;20800;-83
2022/03/18 14:47:10;;;;;;;2.92;1.45;;;;;;;;;;5034288;28;20257;-82
2022/03/18 14:49:37;;;;;;;2.50;1.30;;;;;;;;;;5038726;28;20198;-82
2022/03/18 14:52:04;;;;;;;3.10;1.35;;;;;;;;;;5040417;28;20238;-83
2022/03/18 14:57:19;;;;;;;3.05;1.60;;;;;;;;;;5030172;28;20683;-83
2022/03/18 14:59:48;;;;;;;2.97;1.70;;;;;;;;;;5021307;28;20207;-82
2022/03/18 15:02:17;;;;;;;2.30;1.55;;;;;;;;;;5021213;28;20246;-82
2022/03/18 15:04:44;;;;;;;2.40;1.50;;;;;;;;;;5022980;28;20222;-82
2022/03/18 15:07:12;;;;;;;3.72;1.90;;;;;;;;;;5023118;28;20285;-81
2022/03/18 15:09:39;;;;;;;3.80;2.08;;;;;;;;;;5023844;28;20200;-81
2022/03/18 15:12:06;;;;;;;4.32;2.13;;;;;;;;;;5021797;28;20235;-81